North River — WYR2549 — position and weather

sailwx.info

Track history (hours):
 
Tides and Currents Weather Stations Pressure Air Temp Water Temp Dewpoint Dewpoint Depression Visibility Wind Speed Wind Dir Waves Ship Positions

North River

Owner: CITY OF NEW YORK, Brooklyn, NY. More information available from US FCC via Universal Licensing System and Coast Guard Vessel Documentation Center.

Last reported at 2014-Dec-17 00:22 UTC. Time now 2014-Dec-18 02:33 UTC.
Position N 40°47' W 073°53'.

Length 78 m.

Type: Tanker. MMSI: 367074110.

Date/timePositionNaut miles runAvg speedWind from/ knotsBaromVisibWave heightAir tempDewpointWater temp
2014-Dec-17 00:22N 40°47' W 073°53'6 7.0
2014-Dec-16 23:33N 40°43' W 073°58'7 6.3
2014-Dec-16 22:30N 40°50' W 073°58'0 0.0
2014-Dec-16 21:07N 40°50' W 073°58'4 7.2
2014-Dec-16 20:33N 40°46' W 074°00'9 8.7
2014-Dec-16 19:29N 40°38' W 074°08'0 0.0
2014-Dec-16 18:33N 40°38' W 074°08'0 0.0
2014-Dec-16 17:33N 40°38' W 074°08'1010.1
2014-Dec-16 16:33N 40°47' W 074°00'3 1.5
2014-Dec-16 14:29N 40°49' W 073°58'6 6.1
2014-Dec-16 13:34N 40°44' W 073°58'5 0.3
2014-Dec-15 22:34N 40°47' W 073°54'8 7.7
2014-Dec-15 21:34N 40°42' W 074°01'8 3.3
2014-Dec-15 19:08N 40°50' W 073°58'610.4
2014-Dec-15 18:33N 40°44' W 074°01'5 5.4
2014-Dec-15 17:33N 40°47' W 073°55'0 0.0
2014-Dec-15 16:33N 40°47' W 073°55'2 2.0
2014-Dec-15 15:31N 40°48' W 073°53'2 1.8
2014-Dec-15 14:32N 40°48' W 073°50'1 0.4
2014-Dec-15 13:04N 40°48' W 073°51'  
2014-Dec-12 22:24N 40°48' W 073°54'7 8.5
2014-Dec-12 21:33N 40°42' W 073°59'3 1.0
2014-Dec-12 18:33N 40°45' W 074°01'6 1.9
2014-Dec-12 15:23N 40°48' W 073°54'2 0.1
2014-Dec-11 21:27N 40°47' W 073°55'910.4
2014-Dec-11 20:33N 40°40' W 074°03'4 3.7
2014-Dec-11 19:33N 40°38' W 074°08'0 0.0
2014-Dec-11 18:32N 40°38' W 074°08'4 3.8
2014-Dec-11 17:33N 40°40' W 074°03'9 2.9
2014-Dec-11 14:33N 40°48' W 073°59'3 2.9
2014-Dec-11 13:33N 40°45' W 073°57'3 0.3
2014-Dec-11 00:19N 40°47' W 073°54'1 0.2
2014-Dec-10 19:27N 40°47' W 073°55'2 1.2
2014-Dec-10 17:33N 40°46' W 073°57'1110.8
2014-Dec-10 16:33N 40°35' W 074°02'7 7.2
2014-Dec-10 15:33N 40°35' W 073°52'2 2.0
2014-Dec-10 14:33N 40°35' W 073°50'  
Track history (hours):
 
Tides and Currents Weather Stations Pressure Air Temp Water Temp Dewpoint Dewpoint Depression Visibility Wind Speed Wind Dir Waves Ship Positions

North River

Owner: CITY OF NEW YORK, Brooklyn, NY. More information available from US FCC via Universal Licensing System and Coast Guard Vessel Documentation Center.

Last reported at 2014-Dec-17 00:22 UTC. Time now 2014-Dec-18 02:33 UTC.
Position N 40°47' W 073°53'.

Length 78 m.

Type: Tanker. MMSI: 367074110.

Date/timePositionNaut miles runAvg speedWind from/ knotsBaromVisibWave heightAir tempDewpointWater temp
2014-Dec-17 00:22N 40°47' W 073°53'6 7.0
2014-Dec-16 23:33N 40°43' W 073°58'7 6.3
2014-Dec-16 22:30N 40°50' W 073°58'0 0.0
2014-Dec-16 21:07N 40°50' W 073°58'4 7.2
2014-Dec-16 20:33N 40°46' W 074°00'9 8.7
2014-Dec-16 19:29N 40°38' W 074°08'0 0.0
2014-Dec-16 18:33N 40°38' W 074°08'0 0.0
2014-Dec-16 17:33N 40°38' W 074°08'1010.1
2014-Dec-16 16:33N 40°47' W 074°00'3 1.5
2014-Dec-16 14:29N 40°49' W 073°58'6 6.1
2014-Dec-16 13:34N 40°44' W 073°58'5 0.3
2014-Dec-15 22:34N 40°47' W 073°54'8 7.7
2014-Dec-15 21:34N 40°42' W 074°01'8 3.3
2014-Dec-15 19:08N 40°50' W 073°58'610.4
2014-Dec-15 18:33N 40°44' W 074°01'5 5.4
2014-Dec-15 17:33N 40°47' W 073°55'0 0.0
2014-Dec-15 16:33N 40°47' W 073°55'2 2.0
2014-Dec-15 15:31N 40°48' W 073°53'2 1.8
2014-Dec-15 14:32N 40°48' W 073°50'1 0.4
2014-Dec-15 13:04N 40°48' W 073°51'  
2014-Dec-12 22:24N 40°48' W 073°54'7 8.5
2014-Dec-12 21:33N 40°42' W 073°59'3 1.0
2014-Dec-12 18:33N 40°45' W 074°01'6 1.9
2014-Dec-12 15:23N 40°48' W 073°54'2 0.1
2014-Dec-11 21:27N 40°47' W 073°55'910.4
2014-Dec-11 20:33N 40°40' W 074°03'4 3.7
2014-Dec-11 19:33N 40°38' W 074°08'0 0.0
2014-Dec-11 18:32N 40°38' W 074°08'4 3.8
2014-Dec-11 17:33N 40°40' W 074°03'9 2.9
2014-Dec-11 14:33N 40°48' W 073°59'3 2.9
2014-Dec-11 13:33N 40°45' W 073°57'3 0.3
2014-Dec-11 00:19N 40°47' W 073°54'1 0.2
2014-Dec-10 19:27N 40°47' W 073°55'2 1.2
2014-Dec-10 17:33N 40°46' W 073°57'1110.8
2014-Dec-10 16:33N 40°35' W 074°02'7 7.2
2014-Dec-10 15:33N 40°35' W 073°52'2 2.0
2014-Dec-10 14:33N 40°35' W 073°50'  

Dump ship's entire track history